createdAt,value
2022-07-31T00:00:15.186Z,100.00
2022-07-31T00:02:41.732Z,100.00
2022-07-31T00:05:08.439Z,100.00
2022-07-31T00:07:34.952Z,100.00
2022-07-31T00:10:01.505Z,100.00
2022-07-31T00:12:28.017Z,100.00
2022-07-31T00:14:54.539Z,100.00
2022-07-31T00:17:21.089Z,100.00
2022-07-31T00:19:47.604Z,100.00
2022-07-31T00:22:14.100Z,100.00
2022-07-31T00:24:40.626Z,100.00
2022-07-31T00:27:08.015Z,100.00
2022-07-31T00:29:34.507Z,100.00
2022-07-31T00:32:01.078Z,100.00
2022-07-31T00:34:27.662Z,100.00
2022-07-31T00:36:54.217Z,100.00
2022-07-31T00:39:20.720Z,100.00
2022-07-31T00:41:47.407Z,100.00
2022-07-31T00:44:13.969Z,100.00
2022-07-31T00:46:41.324Z,100.00
2022-07-31T00:49:10.171Z,100.00
2022-07-31T00:51:37.986Z,100.00
2022-07-31T00:54:04.891Z,100.00
2022-07-31T00:56:31.387Z,100.00
2022-07-31T00:58:57.949Z,100.00
2022-07-31T01:01:24.582Z,100.00
2022-07-31T01:03:51.182Z,100.00
2022-07-31T01:06:17.678Z,100.00
2022-07-31T01:08:44.182Z,100.00
2022-07-31T01:11:18.093Z,100.00
2022-07-31T01:14:10.856Z,100.00
2022-07-31T01:16:40.289Z,100.00
2022-07-31T01:19:19.280Z,100.00
2022-07-31T01:22:04.998Z,100.00
2022-07-31T01:25:00.561Z,100.00
2022-07-31T01:27:49.603Z,100.00
2022-07-31T01:30:16.448Z,100.00
2022-07-31T01:32:44.709Z,100.00
2022-07-31T01:35:15.177Z,100.00
2022-07-31T01:37:57.018Z,100.00
2022-07-31T01:40:27.638Z,100.00
2022-07-31T01:42:58.471Z,100.00
2022-07-31T01:45:24.987Z,100.00
2022-07-31T01:47:52.212Z,100.00
2022-07-31T01:50:42.343Z,100.00
2022-07-31T01:53:05.263Z,100.00
2022-07-31T01:55:31.779Z,100.00
2022-07-31T01:58:19.102Z,100.00
2022-07-31T02:00:45.918Z,100.00
2022-07-31T02:03:12.541Z,100.00
2022-07-31T02:05:43.560Z,100.00
2022-07-31T02:08:10.557Z,100.00
2022-07-31T02:10:37.571Z,100.00
2022-07-31T02:13:04.265Z,100.00
2022-07-31T02:15:31.236Z,100.00
2022-07-31T02:17:58.152Z,100.00
2022-07-31T02:20:24.905Z,100.00
2022-07-31T02:22:51.436Z,100.00
2022-07-31T02:25:17.930Z,100.00
2022-07-31T02:27:53.980Z,100.00
2022-07-31T02:30:39.454Z,100.00
2022-07-31T02:33:07.121Z,100.00
2022-07-31T02:35:33.704Z,100.00
2022-07-31T02:38:00.198Z,100.00
2022-07-31T02:40:26.786Z,100.00
2022-07-31T02:42:53.319Z,100.00
2022-07-31T02:45:19.864Z,100.00
2022-07-31T02:47:46.368Z,100.00
2022-07-31T02:50:13.904Z,100.00
2022-07-31T02:52:46.711Z,100.00
2022-07-31T02:55:13.507Z,100.00
2022-07-31T02:57:41.337Z,100.00
2022-07-31T03:00:27.060Z,100.00
2022-07-31T03:02:54.311Z,100.00
2022-07-31T03:05:21.326Z,100.00
2022-07-31T03:07:47.898Z,100.00
2022-07-31T03:10:14.502Z,100.00
2022-07-31T03:12:42.305Z,100.00
2022-07-31T03:15:14.184Z,100.00
2022-07-31T03:17:41.309Z,100.00
2022-07-31T03:20:08.806Z,100.00
2022-07-31T03:22:35.338Z,100.00
2022-07-31T03:25:02.522Z,100.00
2022-07-31T03:27:29.014Z,100.00
2022-07-31T03:29:55.579Z,100.00
2022-07-31T03:32:22.073Z,100.00
2022-07-31T03:34:48.592Z,100.00
2022-07-31T03:37:15.131Z,100.00
2022-07-31T03:39:41.657Z,100.00
2022-07-31T03:42:18.535Z,100.00
2022-07-31T03:44:45.830Z,100.00
2022-07-31T03:47:12.399Z,100.00
2022-07-31T03:49:39.035Z,100.00
2022-07-31T03:52:10.070Z,100.00
2022-07-31T03:54:38.394Z,100.00
2022-07-31T03:57:04.910Z,100.00
2022-07-31T03:59:32.362Z,100.00
2022-07-31T04:02:07.803Z,100.00
2022-07-31T04:04:37.124Z,100.00
2022-07-31T04:07:04.687Z,100.00
2022-07-31T04:09:31.449Z,100.00
2022-07-31T04:11:57.998Z,100.00
2022-07-31T04:14:24.544Z,100.00
2022-07-31T04:16:51.091Z,100.00
2022-07-31T04:19:17.704Z,100.00
2022-07-31T04:21:44.205Z,100.00
2022-07-31T04:24:11.602Z,100.00
2022-07-31T04:26:38.117Z,100.00
2022-07-31T04:29:04.730Z,100.00
2022-07-31T04:31:31.232Z,100.00
2022-07-31T04:33:57.736Z,100.00
2022-07-31T04:36:29.779Z,100.00
2022-07-31T04:38:57.848Z,100.00
2022-07-31T04:41:24.646Z,100.00
2022-07-31T04:43:51.126Z,100.00
2022-07-31T04:46:18.084Z,100.00
2022-07-31T04:48:44.996Z,100.00
2022-07-31T04:51:21.908Z,100.00
2022-07-31T04:53:48.504Z,100.00
2022-07-31T04:56:33.353Z,100.00
2022-07-31T04:59:00.971Z,100.00
2022-07-31T05:01:27.549Z,100.00
2022-07-31T05:03:54.371Z,100.00
2022-07-31T05:06:20.898Z,100.00
2022-07-31T05:08:47.388Z,100.00
2022-07-31T05:11:23.118Z,100.00
2022-07-31T05:13:51.182Z,100.00
2022-07-31T05:16:18.571Z,100.00
2022-07-31T05:18:45.397Z,100.00
2022-07-31T05:21:12.788Z,100.00
2022-07-31T05:23:43.438Z,100.00
2022-07-31T05:26:09.978Z,100.00
2022-07-31T05:28:37.150Z,100.00
2022-07-31T05:31:04.221Z,100.00
2022-07-31T05:33:30.739Z,100.00
2022-07-31T05:35:57.509Z,100.00
2022-07-31T05:38:24.153Z,98.28
2022-07-31T05:40:50.664Z,94.05
2022-07-31T05:43:17.161Z,93.59
2022-07-31T05:45:43.935Z,95.85
2022-07-31T05:48:10.664Z,95.65
2022-07-31T05:50:37.219Z,91.92
2022-07-31T05:53:03.698Z,90.82
2022-07-31T05:55:30.192Z,91.59
2022-07-31T05:57:56.686Z,93.29
2022-07-31T06:00:23.296Z,90.81
2022-07-31T06:02:51.391Z,91.94
2022-07-31T06:05:17.924Z,91.07
2022-07-31T06:07:51.859Z,91.71
2022-07-31T06:10:18.737Z,92.83
2022-07-31T06:12:47.502Z,93.36
2022-07-31T06:15:13.982Z,92.72
2022-07-31T06:17:44.436Z,91.02
2022-07-31T06:20:11.756Z,90.14
2022-07-31T06:22:43.670Z,91.61
2022-07-31T06:25:10.361Z,89.86
2022-07-31T06:27:38.123Z,89.56
2022-07-31T06:30:08.048Z,89.48
2022-07-31T06:32:34.599Z,90.13
2022-07-31T06:35:01.153Z,92.56
2022-07-31T06:37:27.644Z,92.02
2022-07-31T06:39:55.790Z,91.70
2022-07-31T06:42:23.455Z,90.14
2022-07-31T06:44:50.165Z,92.00
2022-07-31T06:47:17.510Z,91.93
2022-07-31T06:49:44.118Z,89.48
2022-07-31T06:52:10.845Z,88.71
2022-07-31T06:54:37.322Z,91.27
2022-07-31T06:57:04.211Z,88.89
2022-07-31T06:59:39.669Z,88.42
2022-07-31T07:02:07.398Z,86.75
2022-07-31T07:05:05.164Z,81.03
2022-07-31T07:07:20.711Z,78.54
2022-07-31T07:09:47.482Z,78.57
2022-07-31T07:12:16.924Z,76.03
2022-07-31T07:14:44.070Z,77.65
2022-07-31T07:17:10.562Z,75.60
2022-07-31T07:19:39.895Z,77.19
2022-07-31T07:22:06.750Z,76.49
2022-07-31T07:24:36.278Z,78.75
2022-07-31T07:27:02.778Z,77.46
2022-07-31T07:29:29.315Z,75.66
2022-07-31T07:31:55.828Z,75.72
2022-07-31T07:34:22.402Z,74.68
2022-07-31T07:36:48.905Z,75.95
2022-07-31T07:39:15.391Z,76.76
2022-07-31T07:41:41.891Z,74.79
2022-07-31T07:44:08.451Z,77.02
2022-07-31T07:46:37.825Z,77.50
2022-07-31T07:49:04.532Z,75.94
2022-07-31T07:51:31.076Z,75.46
2022-07-31T07:53:57.570Z,71.60
2022-07-31T07:56:24.567Z,71.99
2022-07-31T07:58:51.084Z,72.31
2022-07-31T08:01:18.010Z,73.54
2022-07-31T08:03:49.687Z,74.06
2022-07-31T08:06:18.935Z,74.14
2022-07-31T08:08:45.432Z,73.61
2022-07-31T08:11:17.331Z,72.27
2022-07-31T08:13:49.787Z,71.39
2022-07-31T08:16:16.919Z,73.59
2022-07-31T08:18:43.519Z,70.48
2022-07-31T08:21:10.081Z,72.87
2022-07-31T08:23:36.943Z,67.59
2022-07-31T08:26:04.595Z,70.84
2022-07-31T08:28:33.197Z,66.80
2022-07-31T08:31:00.139Z,64.39
2022-07-31T08:33:26.648Z,64.25
2022-07-31T08:35:53.195Z,62.96
2022-07-31T08:38:20.410Z,63.25
2022-07-31T08:40:46.962Z,62.75
2022-07-31T08:44:01.862Z,61.02
2022-07-31T08:46:02.810Z,60.47
2022-07-31T08:48:31.709Z,60.85
2022-07-31T08:50:58.393Z,61.50
2022-07-31T08:53:24.898Z,61.11
2022-07-31T08:55:55.926Z,59.04
2022-07-31T08:58:24.623Z,56.00
2022-07-31T09:00:51.442Z,55.38
2022-07-31T09:03:18.022Z,59.71
2022-07-31T09:05:44.579Z,56.58
2022-07-31T09:08:14.640Z,54.70
2022-07-31T09:10:45.057Z,54.84
2022-07-31T09:13:18.842Z,55.17
2022-07-31T09:15:45.406Z,51.27
2022-07-31T09:18:21.998Z,53.45
2022-07-31T09:20:59.842Z,52.79
2022-07-31T09:23:26.789Z,53.32
2022-07-31T09:25:58.683Z,55.09
2022-07-31T09:28:38.670Z,55.10
2022-07-31T09:31:05.388Z,56.58
2022-07-31T09:33:32.402Z,54.05
2022-07-31T09:35:59.712Z,54.73
2022-07-31T09:38:31.356Z,54.29
2022-07-31T09:41:53.512Z,54.48
2022-07-31T09:44:09.583Z,52.87
2022-07-31T09:46:44.748Z,54.30
2022-07-31T09:49:11.460Z,53.56
2022-07-31T09:51:41.962Z,51.90
2022-07-31T09:54:09.128Z,52.67
2022-07-31T09:56:35.716Z,54.89
2022-07-31T09:59:02.251Z,54.39
2022-07-31T10:01:28.832Z,52.57
2022-07-31T10:03:56.777Z,51.30
2022-07-31T10:06:23.296Z,53.14
2022-07-31T10:08:49.830Z,55.57
2022-07-31T10:11:19.617Z,53.27
2022-07-31T10:13:46.788Z,51.86
2022-07-31T10:16:14.108Z,54.05
2022-07-31T10:18:44.655Z,50.44
2022-07-31T10:21:11.363Z,52.03
2022-07-31T10:23:41.711Z,51.89
2022-07-31T10:26:08.247Z,52.60
2022-07-31T10:28:37.049Z,52.66
2022-07-31T10:31:03.597Z,52.97
2022-07-31T10:33:45.465Z,53.99
2022-07-31T10:36:18.478Z,55.53
2022-07-31T10:38:52.103Z,56.90
2022-07-31T10:41:42.398Z,56.22
2022-07-31T10:44:15.909Z,51.96
2022-07-31T10:46:42.423Z,51.34
2022-07-31T10:49:09.178Z,48.73
2022-07-31T10:51:46.460Z,51.00
2022-07-31T10:54:14.155Z,50.76
2022-07-31T10:56:43.345Z,53.70
2022-07-31T10:59:12.158Z,50.29
2022-07-31T11:01:52.598Z,52.45
2022-07-31T11:04:32.354Z,49.94
2022-07-31T11:06:59.140Z,53.45
2022-07-31T11:09:26.910Z,50.39
2022-07-31T11:11:53.550Z,52.34
2022-07-31T11:14:31.665Z,50.14
2022-07-31T11:16:58.160Z,49.39
2022-07-31T11:19:25.453Z,50.21
2022-07-31T11:21:54.490Z,52.01
2022-07-31T11:24:22.732Z,49.89
2022-07-31T11:26:53.230Z,52.26
2022-07-31T11:30:00.450Z,50.51
2022-07-31T11:32:25.343Z,51.19
2022-07-31T11:34:54.002Z,50.13
2022-07-31T11:37:37.511Z,50.08
2022-07-31T11:40:14.925Z,49.96
2022-07-31T11:45:54.914Z,49.61
2022-07-31T11:48:21.801Z,50.47
2022-07-31T11:50:49.639Z,51.05
2022-07-31T11:53:16.826Z,52.86
2022-07-31T11:55:50.984Z,50.49
2022-07-31T11:58:19.238Z,50.89
2022-07-31T12:00:50.213Z,51.01
2022-07-31T12:03:17.984Z,49.78
2022-07-31T12:05:48.701Z,52.38
2022-07-31T12:08:15.304Z,51.03
2022-07-31T12:10:42.005Z,49.74
2022-07-31T12:13:16.394Z,50.53
2022-07-31T12:15:55.761Z,50.91
2022-07-31T12:18:22.364Z,51.49
2022-07-31T12:20:55.741Z,51.35
2022-07-31T12:23:40.295Z,52.71
2022-07-31T12:26:08.379Z,50.81
2022-07-31T12:28:34.866Z,50.67
2022-07-31T12:31:01.381Z,50.77
2022-07-31T12:33:27.885Z,49.50
2022-07-31T12:35:57.025Z,49.34
2022-07-31T12:38:40.803Z,50.48
2022-07-31T12:41:11.666Z,49.19
2022-07-31T12:43:38.247Z,50.77
2022-07-31T12:46:07.619Z,49.95
2022-07-31T12:48:39.304Z,50.64
2022-07-31T12:51:07.683Z,49.84
2022-07-31T12:53:34.191Z,53.65
2022-07-31T12:56:00.703Z,51.25
2022-07-31T12:58:27.193Z,49.78
2022-07-31T13:00:54.835Z,49.73
2022-07-31T13:03:21.404Z,48.95
2022-07-31T13:05:51.902Z,51.46
2022-07-31T13:08:18.693Z,51.71
2022-07-31T13:10:46.100Z,51.65
2022-07-31T13:13:12.609Z,55.15
2022-07-31T13:15:39.280Z,51.61
2022-07-31T13:18:05.902Z,53.30
2022-07-31T13:20:32.528Z,53.82
2022-07-31T13:23:02.775Z,52.73
2022-07-31T13:25:30.634Z,53.05
2022-07-31T13:27:57.881Z,54.71
2022-07-31T13:30:24.408Z,53.25
2022-07-31T13:32:50.989Z,53.25
2022-07-31T13:35:27.264Z,54.88
2022-07-31T13:37:54.720Z,55.76
2022-07-31T13:40:41.232Z,56.35
2022-07-31T13:43:07.737Z,56.17
2022-07-31T13:45:34.248Z,56.55
2022-07-31T13:48:03.351Z,55.86
2022-07-31T13:50:33.554Z,57.42
2022-07-31T13:53:00.056Z,57.66
2022-07-31T13:55:26.645Z,58.08
2022-07-31T13:57:55.336Z,55.86
2022-07-31T14:00:26.535Z,55.77
2022-07-31T14:02:53.066Z,56.22
2022-07-31T14:05:19.581Z,54.37
2022-07-31T14:07:51.724Z,53.98
2022-07-31T14:10:20.580Z,55.81
2022-07-31T14:12:47.915Z,56.39
2022-07-31T14:15:14.456Z,55.02
2022-07-31T14:17:40.986Z,52.35
2022-07-31T14:20:07.998Z,52.77
2022-07-31T14:22:34.511Z,53.44
2022-07-31T14:25:01.086Z,55.42
2022-07-31T14:27:27.637Z,57.59
2022-07-31T14:29:54.533Z,62.01
2022-07-31T14:32:22.182Z,62.96
2022-07-31T14:34:49.713Z,64.73
2022-07-31T14:37:16.276Z,65.98
2022-07-31T14:39:43.252Z,65.16
2022-07-31T14:42:09.992Z,65.28
2022-07-31T14:44:38.200Z,66.33
2022-07-31T14:47:05.127Z,65.79
2022-07-31T14:50:09.152Z,66.28
2022-07-31T14:52:18.442Z,68.50
2022-07-31T14:54:44.938Z,65.25
2022-07-31T14:57:11.522Z,66.06
2022-07-31T14:59:38.031Z,65.44
2022-07-31T15:02:04.675Z,65.15
2022-07-31T15:04:31.216Z,63.78
2022-07-31T15:07:13.042Z,63.81
2022-07-31T15:09:44.348Z,64.17
2022-07-31T15:12:13.338Z,63.99
2022-07-31T15:14:39.851Z,64.72
2022-07-31T15:17:06.630Z,63.64
2022-07-31T15:19:33.364Z,64.72
2022-07-31T15:22:16.494Z,64.80
2022-07-31T15:24:49.614Z,63.88
2022-07-31T15:27:17.902Z,63.68
2022-07-31T15:30:00.440Z,65.69
2022-07-31T15:32:30.928Z,65.35
2022-07-31T15:34:57.449Z,65.11
2022-07-31T15:37:23.980Z,66.76
2022-07-31T15:40:03.000Z,66.80
2022-07-31T15:42:34.096Z,67.18
2022-07-31T15:45:00.620Z,65.33
2022-07-31T15:47:27.108Z,65.54
2022-07-31T15:49:53.610Z,67.03
2022-07-31T15:52:20.152Z,67.25
2022-07-31T15:54:47.064Z,69.96
2022-07-31T15:57:13.741Z,72.47
2022-07-31T15:59:41.346Z,75.23
2022-07-31T16:02:07.922Z,77.45
2022-07-31T16:04:36.627Z,77.71
2022-07-31T16:08:30.767Z,77.78
2022-07-31T16:10:14.711Z,78.42
2022-07-31T16:12:46.585Z,79.98
2022-07-31T16:15:13.355Z,80.11
2022-07-31T16:17:40.326Z,80.52
2022-07-31T16:20:08.803Z,79.90
2022-07-31T16:22:39.175Z,79.92
2022-07-31T16:25:06.403Z,79.17
2022-07-31T16:27:33.002Z,79.55
2022-07-31T16:30:01.979Z,79.27
2022-07-31T16:32:29.290Z,78.57
2022-07-31T16:34:59.963Z,79.09
2022-07-31T16:37:51.234Z,78.95
2022-07-31T16:40:28.958Z,78.50
2022-07-31T16:43:48.147Z,78.12
2022-07-31T16:45:51.654Z,77.83
2022-07-31T16:48:18.326Z,76.85
2022-07-31T16:50:44.885Z,77.07
2022-07-31T16:53:34.686Z,76.03
2022-07-31T16:56:01.884Z,75.37
2022-07-31T16:58:28.807Z,73.97
2022-07-31T17:00:55.437Z,75.38
2022-07-31T17:03:59.204Z,75.78
2022-07-31T17:06:10.290Z,75.46
2022-07-31T17:08:38.102Z,74.98
2022-07-31T17:11:04.661Z,74.89
2022-07-31T17:13:31.238Z,75.73
2022-07-31T17:15:57.763Z,75.34
2022-07-31T17:18:25.337Z,75.10
2022-07-31T17:20:53.274Z,74.24
2022-07-31T17:23:43.079Z,75.23
2022-07-31T17:26:09.514Z,74.73
2022-07-31T17:28:47.186Z,75.52
2022-07-31T17:31:13.711Z,74.46
2022-07-31T17:33:58.345Z,74.73
2022-07-31T17:36:26.883Z,76.63
2022-07-31T17:38:53.422Z,76.21
2022-07-31T17:41:24.794Z,76.63
2022-07-31T17:43:55.496Z,77.07
2022-07-31T17:46:28.199Z,77.61
2022-07-31T17:49:03.601Z,77.98
2022-07-31T17:51:30.134Z,78.13
2022-07-31T17:53:59.601Z,78.08
2022-07-31T17:56:26.663Z,77.52
2022-07-31T17:58:53.365Z,79.13
2022-07-31T18:01:20.016Z,81.94
2022-07-31T18:03:47.033Z,82.64
2022-07-31T18:06:13.557Z,83.32
2022-07-31T18:08:40.055Z,84.93
2022-07-31T18:11:08.190Z,85.25
2022-07-31T18:13:47.765Z,86.48
2022-07-31T18:16:14.942Z,86.95
2022-07-31T18:18:41.434Z,87.52
2022-07-31T18:21:07.957Z,88.82
2022-07-31T18:23:34.449Z,89.51
2022-07-31T18:26:01.023Z,89.95
2022-07-31T18:28:27.524Z,88.11
2022-07-31T18:30:54.053Z,88.16
2022-07-31T18:33:20.704Z,88.36
2022-07-31T18:35:47.370Z,88.47
2022-07-31T18:38:13.875Z,88.38
2022-07-31T18:40:40.449Z,89.68
2022-07-31T18:43:07.206Z,89.86
2022-07-31T18:45:34.080Z,90.31
2022-07-31T18:48:00.874Z,90.98
2022-07-31T18:50:58.188Z,91.54
2022-07-31T18:53:14.816Z,92.17
2022-07-31T18:55:41.431Z,91.28
2022-07-31T18:58:08.088Z,91.46
2022-07-31T19:00:34.633Z,92.94
2022-07-31T19:03:01.445Z,96.64
2022-07-31T19:05:28.207Z,100.00
2022-07-31T19:07:54.848Z,100.00
2022-07-31T19:10:30.923Z,100.00
2022-07-31T19:12:58.687Z,100.00
2022-07-31T19:15:25.273Z,100.00
2022-07-31T19:17:51.749Z,100.00
2022-07-31T19:20:51.740Z,100.00
2022-07-31T19:23:12.394Z,100.00
2022-07-31T19:26:02.561Z,100.00
2022-07-31T19:28:27.220Z,100.00
2022-07-31T19:30:54.059Z,100.00
2022-07-31T19:33:20.571Z,100.00
2022-07-31T19:35:55.353Z,100.00
2022-07-31T19:38:27.202Z,100.00
2022-07-31T19:40:53.776Z,100.00
2022-07-31T19:43:20.561Z,100.00
2022-07-31T19:46:10.574Z,100.00
2022-07-31T19:48:33.859Z,100.00
2022-07-31T19:51:00.363Z,100.00
2022-07-31T19:53:27.153Z,100.00
2022-07-31T19:55:53.663Z,100.00
2022-07-31T19:58:21.240Z,100.00
2022-07-31T20:00:47.755Z,100.00
2022-07-31T20:03:14.327Z,100.00
2022-07-31T20:05:41.098Z,100.00
2022-07-31T20:08:07.802Z,100.00
2022-07-31T20:10:34.310Z,100.00
2022-07-31T20:13:00.894Z,100.00
2022-07-31T20:15:50.545Z,100.00
2022-07-31T20:18:23.257Z,100.00
2022-07-31T20:20:58.031Z,100.00
2022-07-31T20:23:27.644Z,100.00
2022-07-31T20:25:54.271Z,100.00
2022-07-31T20:28:20.876Z,100.00
2022-07-31T20:30:47.383Z,100.00
2022-07-31T20:33:13.883Z,100.00
2022-07-31T20:35:49.037Z,100.00
2022-07-31T20:38:17.812Z,100.00
2022-07-31T20:40:48.181Z,100.00
2022-07-31T20:43:25.739Z,100.00
2022-07-31T20:45:52.570Z,100.00
2022-07-31T20:48:20.951Z,100.00
2022-07-31T20:50:48.109Z,100.00
2022-07-31T20:53:15.405Z,100.00
2022-07-31T20:55:42.045Z,100.00
2022-07-31T20:58:08.573Z,100.00
2022-07-31T21:00:38.139Z,100.00
2022-07-31T21:03:05.753Z,100.00
2022-07-31T21:05:32.255Z,100.00
2022-07-31T21:07:58.788Z,100.00
2022-07-31T21:10:28.145Z,100.00
2022-07-31T21:12:56.015Z,100.00
2022-07-31T21:15:40.872Z,100.00
2022-07-31T21:18:09.535Z,100.00
2022-07-31T21:20:50.668Z,100.00
2022-07-31T21:23:19.461Z,100.00
2022-07-31T21:25:46.164Z,100.00
2022-07-31T21:28:12.807Z,100.00
2022-07-31T21:30:39.476Z,100.00
2022-07-31T21:33:09.557Z,100.00
2022-07-31T21:35:37.186Z,100.00
2022-07-31T21:38:04.408Z,100.00
2022-07-31T21:40:31.565Z,100.00
2022-07-31T21:42:58.312Z,100.00
2022-07-31T21:45:25.150Z,100.00
2022-07-31T21:47:55.571Z,100.00
2022-07-31T21:50:28.680Z,100.00
2022-07-31T21:52:55.964Z,100.00
2022-07-31T21:55:22.472Z,100.00
2022-07-31T21:57:59.625Z,100.00
2022-07-31T22:00:28.317Z,100.00
2022-07-31T22:02:56.437Z,100.00
2022-07-31T22:05:41.598Z,100.00
2022-07-31T22:08:08.125Z,100.00
2022-07-31T22:10:34.789Z,100.00
2022-07-31T22:13:01.317Z,100.00
2022-07-31T22:15:50.528Z,100.00
2022-07-31T22:18:14.540Z,100.00
2022-07-31T22:20:41.157Z,100.00
2022-07-31T22:23:07.698Z,100.00
2022-07-31T22:25:34.339Z,100.00
2022-07-31T22:28:04.196Z,100.00
2022-07-31T22:30:31.345Z,100.00
2022-07-31T22:33:01.279Z,100.00
2022-07-31T22:35:28.222Z,100.00
2022-07-31T22:37:54.741Z,100.00
2022-07-31T22:40:21.698Z,100.00
2022-07-31T22:42:57.524Z,100.00
2022-07-31T22:45:24.802Z,100.00
2022-07-31T22:47:51.562Z,100.00
2022-07-31T22:50:18.134Z,100.00
2022-07-31T22:52:44.693Z,100.00
2022-07-31T22:55:11.615Z,100.00
2022-07-31T22:57:40.720Z,100.00
2022-07-31T23:00:08.231Z,100.00
2022-07-31T23:02:34.829Z,100.00
2022-07-31T23:05:01.333Z,100.00
2022-07-31T23:07:27.874Z,100.00
2022-07-31T23:09:54.401Z,100.00
2022-07-31T23:12:20.895Z,100.00
2022-07-31T23:14:47.383Z,100.00
2022-07-31T23:17:23.314Z,100.00
2022-07-31T23:19:54.004Z,100.00
2022-07-31T23:22:33.850Z,100.00
2022-07-31T23:25:10.099Z,100.00
2022-07-31T23:27:36.618Z,100.00
2022-07-31T23:30:03.188Z,100.00
2022-07-31T23:32:29.742Z,100.00
2022-07-31T23:34:56.318Z,100.00
2022-07-31T23:37:22.833Z,100.00
2022-07-31T23:39:49.330Z,100.00
2022-07-31T23:42:34.439Z,100.00
2022-07-31T23:45:00.997Z,100.00
2022-07-31T23:47:44.662Z,100.00
2022-07-31T23:50:11.875Z,100.00
2022-07-31T23:52:38.395Z,100.00
2022-07-31T23:55:05.150Z,100.00
2022-07-31T23:57:34.623Z,100.00
